Time;durP1;ratioP1;P1;durP2;ratioP2;P2;SDS_P1;SDS_P2;PMS_P1;PMS_P2;Temp;Humidity;BMP_temperature;BMP_pressure;BME280_temperature;BME280_humidity;BME280_pressure;Samples;Min_cycle;Max_cycle;Signal;HPM_P1;HPM_P2
2021/07/06 00:00:51;;;;;;;3.35;3.05;;;;;;;;;;2023229;29;20236;-62
2021/07/06 00:01:51;;;;;;;3.33;3.00;;;;;;;;;;2031405;29;20303;-62
2021/07/06 00:02:51;;;;;;;3.10;2.90;;;;;;;;;;2021228;29;20268;-60
2021/07/06 00:03:53;;;;;;;3.30;2.97;;;;;;;;;;2023832;29;20191;-62
2021/07/06 00:04:59;;;;;;;2.97;2.78;;;;;;;;;;2027090;29;20189;-62
2021/07/06 00:06:00;;;;;;;2.75;2.58;;;;;;;;;;2023158;29;20161;-63
2021/07/06 00:07:00;;;;;;;5.15;3.15;;;;;;;;;;2023895;29;20189;-63
2021/07/06 00:08:00;;;;;;;3.00;2.75;;;;;;;;;;2021541;29;20193;-61
2021/07/06 00:09:02;;;;;;;2.75;2.58;;;;;;;;;;2023250;29;20261;-61
2021/07/06 00:10:04;;;;;;;2.65;2.55;;;;;;;;;;2022836;29;20213;-61
2021/07/06 00:11:04;;;;;;;2.72;2.63;;;;;;;;;;2021920;29;20703;-60
2021/07/06 00:12:04;;;;;;;5.45;2.90;;;;;;;;;;2025738;29;20244;-61
2021/07/06 00:13:04;;;;;;;2.70;2.47;;;;;;;;;;2025208;29;20676;-61
2021/07/06 00:14:05;;;;;;;2.70;2.60;;;;;;;;;;2025308;29;20176;-61
2021/07/06 00:15:06;;;;;;;2.50;2.40;;;;;;;;;;2024601;29;20180;-60
2021/07/06 00:16:06;;;;;;;3.13;2.90;;;;;;;;;;2022060;29;20256;-62
2021/07/06 00:17:06;;;;;;;3.20;3.00;;;;;;;;;;2021684;29;20634;-61
2021/07/06 00:18:07;;;;;;;2.97;2.88;;;;;;;;;;2022669;29;20169;-61
2021/07/06 00:19:07;;;;;;;2.92;2.70;;;;;;;;;;2026437;29;20203;-61
2021/07/06 00:20:09;;;;;;;2.72;2.63;;;;;;;;;;2026186;29;20193;-61
2021/07/06 00:21:09;;;;;;;2.63;2.53;;;;;;;;;;2025527;29;20188;-61
2021/07/06 00:22:09;;;;;;;2.75;2.58;;;;;;;;;;2022986;29;20746;-61
2021/07/06 00:23:10;;;;;;;2.47;2.28;;;;;;;;;;2020989;29;20257;-60
2021/07/06 00:24:10;;;;;;;2.50;2.40;;;;;;;;;;2027600;29;20668;-60
2021/07/06 00:25:11;;;;;;;2.55;2.35;;;;;;;;;;2027174;29;20176;-61
2021/07/06 00:26:11;;;;;;;3.55;2.70;;;;;;;;;;2027504;29;20308;-61
2021/07/06 00:27:11;;;;;;;2.70;2.50;;;;;;;;;;2027706;29;20183;-60
2021/07/06 00:28:11;;;;;;;2.55;2.45;;;;;;;;;;2026792;29;20212;-61
2021/07/06 00:29:12;;;;;;;2.88;2.55;;;;;;;;;;2025842;29;20192;-61
2021/07/06 00:30:12;;;;;;;2.60;2.50;;;;;;;;;;2028118;29;20259;-60
2021/07/06 00:31:13;;;;;;;2.58;2.47;;;;;;;;;;2026542;29;20973;-63
2021/07/06 00:32:13;;;;;;;2.72;2.63;;;;;;;;;;2028386;29;20684;-61
2021/07/06 00:33:14;;;;;;;2.60;2.50;;;;;;;;;;2025436;29;20188;-60
2021/07/06 00:34:14;;;;;;;2.65;2.55;;;;;;;;;;2021055;29;20177;-60
2021/07/06 00:35:14;;;;;;;4.07;2.92;;;;;;;;;;2025956;29;20251;-61
2021/07/06 00:36:15;;;;;;;2.67;2.42;;;;;;;;;;2026521;29;20681;-60
2021/07/06 00:37:15;;;;;;;2.60;2.40;;;;;;;;;;2018447;29;20179;-60
2021/07/06 00:38:15;;;;;;;2.65;2.47;;;;;;;;;;2021753;29;20578;-58
2021/07/06 00:39:15;;;;;;;2.83;2.63;;;;;;;;;;2027113;29;20287;-60
2021/07/06 00:40:16;;;;;;;2.85;2.65;;;;;;;;;;2025713;29;20902;-62
2021/07/06 00:41:17;;;;;;;4.47;2.63;;;;;;;;;;2024565;29;20187;-62
2021/07/06 00:42:17;;;;;;;2.45;2.35;;;;;;;;;;2023227;29;20177;-60
2021/07/06 00:43:17;;;;;;;2.60;2.40;;;;;;;;;;2021247;29;20759;-60
2021/07/06 00:44:19;;;;;;;2.47;2.38;;;;;;;;;;2026579;29;20259;-61
2021/07/06 00:45:21;;;;;;;4.25;2.70;;;;;;;;;;2027485;29;20786;-61
2021/07/06 00:46:21;;;;;;;2.60;2.40;;;;;;;;;;2026728;29;20181;-60
2021/07/06 00:47:31;;;;;;;2.15;2.05;;;;;;;;;;2022133;29;20661;-62
2021/07/06 00:48:32;;;;;;;2.70;2.50;;;;;;;;;;2020526;29;20169;-62
2021/07/06 00:49:32;;;;;;;2.72;2.58;;;;;;;;;;2022149;29;20542;-62
2021/07/06 00:50:33;;;;;;;2.65;2.45;;;;;;;;;;2025531;29;20204;-62
2021/07/06 00:51:33;;;;;;;2.25;2.10;;;;;;;;;;2025712;29;20272;-60
2021/07/06 00:52:34;;;;;;;6.35;2.60;;;;;;;;;;2025229;29;20764;-60
2021/07/06 00:53:34;;;;;;;2.63;2.42;;;;;;;;;;2023473;29;20177;-60
2021/07/06 00:54:34;;;;;;;2.20;2.10;;;;;;;;;;2024296;29;20193;-60
2021/07/06 00:55:34;;;;;;;2.90;2.70;;;;;;;;;;2025103;29;20677;-61
2021/07/06 00:56:35;;;;;;;2.50;2.40;;;;;;;;;;2024943;29;20658;-60
2021/07/06 00:57:37;;;;;;;2.88;2.60;;;;;;;;;;2026951;29;20208;-60
2021/07/06 00:58:37;;;;;;;3.25;2.35;;;;;;;;;;2023133;29;20203;-61
2021/07/06 00:59:37;;;;;;;2.30;2.20;;;;;;;;;;2026537;29;20678;-61
2021/07/06 01:00:38;;;;;;;2.22;2.10;;;;;;;;;;2022658;29;20225;-61
2021/07/06 01:01:38;;;;;;;2.75;2.55;;;;;;;;;;2024875;29;20212;-61
2021/07/06 01:02:39;;;;;;;2.38;2.10;;;;;;;;;;2022706;29;20189;-61
2021/07/06 01:03:39;;;;;;;2.30;2.10;;;;;;;;;;2027144;29;20208;-60
2021/07/06 01:04:39;;;;;;;2.60;2.40;;;;;;;;;;2026795;29;20323;-60
2021/07/06 01:05:39;;;;;;;3.58;2.30;;;;;;;;;;2026645;29;20193;-60
2021/07/06 01:06:40;;;;;;;3.42;2.10;;;;;;;;;;2022096;29;20188;-66
2021/07/06 01:07:40;;;;;;;2.70;2.50;;;;;;;;;;2024467;29;20271;-60
2021/07/06 01:08:44;;;;;;;2.28;2.17;;;;;;;;;;2025957;29;20201;-63
2021/07/06 01:09:44;;;;;;;2.28;2.08;;;;;;;;;;2026471;29;20686;-61
2021/07/06 01:10:44;;;;;;;3.25;2.25;;;;;;;;;;2023623;29;20189;-60
2021/07/06 01:11:45;;;;;;;2.25;2.15;;;;;;;;;;2024439;29;20200;-61
2021/07/06 01:12:45;;;;;;;5.13;2.60;;;;;;;;;;2024803;29;20185;-60
2021/07/06 01:13:46;;;;;;;2.53;2.05;;;;;;;;;;2025304;29;20185;-60
2021/07/06 01:14:46;;;;;;;2.40;2.30;;;;;;;;;;2021761;29;20173;-60
2021/07/06 01:15:46;;;;;;;2.40;2.20;;;;;;;;;;2022838;29;20209;-61
2021/07/06 01:16:47;;;;;;;2.20;2.05;;;;;;;;;;2026179;29;20181;-60
2021/07/06 01:18:04;;;;;;;2.30;2.20;;;;;;;;;;2017052;29;20178;-61
2021/07/06 01:19:05;;;;;;;2.25;2.15;;;;;;;;;;2017070;29;20260;-60
2021/07/06 01:20:06;;;;;;;2.45;2.35;;;;;;;;;;2023449;29;20551;-61
2021/07/06 01:21:07;;;;;;;2.63;2.38;;;;;;;;;;2026754;29;20524;-60
2021/07/06 01:22:07;;;;;;;2.63;2.22;;;;;;;;;;2026551;29;20271;-64
2021/07/06 01:23:07;;;;;;;3.15;2.20;;;;;;;;;;2026135;29;20657;-60
2021/07/06 01:24:08;;;;;;;2.85;2.50;;;;;;;;;;2023937;29;20184;-60
2021/07/06 01:25:09;;;;;;;2.47;2.38;;;;;;;;;;2025744;29;20658;-61
2021/07/06 01:26:09;;;;;;;2.58;2.38;;;;;;;;;;2026161;29;20184;-60
2021/07/06 01:27:09;;;;;;;2.60;2.50;;;;;;;;;;2026141;29;20192;-61
2021/07/06 01:28:10;;;;;;;3.20;2.90;;;;;;;;;;2026224;29;20177;-61
2021/07/06 01:29:10;;;;;;;2.70;2.50;;;;;;;;;;2025158;29;20219;-60
2021/07/06 01:30:12;;;;;;;2.80;2.33;;;;;;;;;;2025756;29;20248;-59
2021/07/06 01:31:12;;;;;;;2.30;2.20;;;;;;;;;;2023634;29;20172;-62
2021/07/06 01:32:13;;;;;;;2.80;2.55;;;;;;;;;;2023977;29;20193;-60
2021/07/06 01:33:22;;;;;;;3.03;2.70;;;;;;;;;;2027259;29;20203;-61
2021/07/06 01:34:22;;;;;;;3.55;2.33;;;;;;;;;;2023626;29;20193;-61
2021/07/06 01:35:23;;;;;;;2.83;2.50;;;;;;;;;;2027115;29;20188;-61
2021/07/06 01:36:23;;;;;;;3.17;2.30;;;;;;;;;;2024798;29;20180;-61
2021/07/06 01:37:24;;;;;;;2.30;2.10;;;;;;;;;;2026033;29;20209;-61
2021/07/06 01:38:24;;;;;;;4.90;2.70;;;;;;;;;;2021582;29;20726;-61
2021/07/06 01:39:28;;;;;;;2.58;2.40;;;;;;;;;;2025427;29;20181;-60
2021/07/06 01:40:29;;;;;;;2.53;2.42;;;;;;;;;;2022958;29;20670;-61
2021/07/06 01:41:29;;;;;;;2.70;2.50;;;;;;;;;;2023433;29;20256;-60
2021/07/06 01:42:30;;;;;;;2.67;2.38;;;;;;;;;;2022537;29;20320;-61
2021/07/06 01:43:30;;;;;;;2.53;2.33;;;;;;;;;;2022411;29;20284;-61
2021/07/06 01:44:30;;;;;;;2.50;2.30;;;;;;;;;;2024574;29;20187;-60
2021/07/06 01:45:31;;;;;;;2.83;2.58;;;;;;;;;;2025876;29;20195;-61
2021/07/06 01:46:38;;;;;;;2.80;2.65;;;;;;;;;;2024267;29;20192;-60
2021/07/06 01:47:39;;;;;;;2.35;2.22;;;;;;;;;;2026274;29;20177;-61
2021/07/06 01:48:39;;;;;;;2.45;2.35;;;;;;;;;;2023416;29;20593;-60
2021/07/06 01:49:40;;;;;;;2.42;2.33;;;;;;;;;;2028496;29;20233;-59
2021/07/06 01:50:41;;;;;;;2.10;2.00;;;;;;;;;;2023319;29;20648;-60
2021/07/06 01:51:42;;;;;;;2.35;2.10;;;;;;;;;;2026056;29;20192;-59
2021/07/06 01:52:49;;;;;;;2.42;2.33;;;;;;;;;;2025021;29;20221;-61
2021/07/06 01:53:50;;;;;;;2.95;2.75;;;;;;;;;;2021730;29;20181;-60
2021/07/06 01:54:51;;;;;;;2.67;2.58;;;;;;;;;;2026877;29;20185;-61
2021/07/06 01:55:53;;;;;;;2.50;2.30;;;;;;;;;;2029851;29;20207;-61
2021/07/06 01:56:53;;;;;;;2.72;2.42;;;;;;;;;;2026548;29;20289;-60
2021/07/06 01:57:54;;;;;;;2.30;2.17;;;;;;;;;;2026554;29;20581;-60
2021/07/06 01:58:55;;;;;;;5.72;2.60;;;;;;;;;;2023929;29;20174;-60
2021/07/06 01:59:56;;;;;;;2.80;2.60;;;;;;;;;;2029210;29;20752;-61
2021/07/06 02:00:57;;;;;;;2.50;2.40;;;;;;;;;;2024606;29;20173;-60
2021/07/06 02:01:57;;;;;;;2.55;2.45;;;;;;;;;;2022620;29;20189;-61
2021/07/06 02:02:58;;;;;;;3.50;2.05;;;;;;;;;;2026161;29;20280;-61
2021/07/06 02:03:59;;;;;;;3.92;2.50;;;;;;;;;;2023735;29;20233;-61
2021/07/06 02:05:04;;;;;;;2.50;2.38;;;;;;;;;;2027820;29;20188;-60
2021/07/06 02:06:04;;;;;;;2.45;2.30;;;;;;;;;;2023827;29;20169;-62
2021/07/06 02:07:05;;;;;;;2.85;2.53;;;;;;;;;;2027341;29;20223;-62
2021/07/06 02:08:06;;;;;;;2.50;2.40;;;;;;;;;;2027218;29;20637;-62
2021/07/06 02:09:07;;;;;;;3.60;2.15;;;;;;;;;;2027741;29;20838;-61
2021/07/06 02:10:08;;;;;;;2.60;2.45;;;;;;;;;;2028365;29;20196;-62
2021/07/06 02:11:08;;;;;;;2.55;2.45;;;;;;;;;;2025824;29;20650;-62
2021/07/06 02:12:08;;;;;;;2.58;2.40;;;;;;;;;;2028982;29;20192;-62
2021/07/06 02:13:13;;;;;;;2.47;2.30;;;;;;;;;;2022994;29;20181;-62
2021/07/06 02:14:15;;;;;;;2.30;2.00;;;;;;;;;;2023789;29;20232;-62
2021/07/06 02:15:16;;;;;;;2.40;2.30;;;;;;;;;;2026864;29;20685;-62
2021/07/06 02:16:16;;;;;;;2.60;2.42;;;;;;;;;;2027707;29;20207;-62
2021/07/06 02:17:16;;;;;;;2.75;2.55;;;;;;;;;;2025401;29;20173;-59
2021/07/06 02:18:19;;;;;;;2.42;2.33;;;;;;;;;;2028970;29;20235;-61
2021/07/06 02:19:19;;;;;;;2.25;2.13;;;;;;;;;;2025239;29;20208;-61
2021/07/06 02:20:20;;;;;;;2.40;2.30;;;;;;;;;;2025579;29;20197;-62
2021/07/06 02:21:21;;;;;;;2.30;2.10;;;;;;;;;;2022672;29;21566;-62
2021/07/06 02:22:21;;;;;;;2.58;2.25;;;;;;;;;;2025568;29;20228;-61
2021/07/06 02:23:22;;;;;;;2.63;2.42;;;;;;;;;;2027534;29;20220;-60
2021/07/06 02:24:22;;;;;;;2.60;2.40;;;;;;;;;;2028248;29;20173;-61
2021/07/06 02:25:23;;;;;;;2.42;2.33;;;;;;;;;;2027287;29;20810;-61
2021/07/06 02:26:23;;;;;;;2.38;2.28;;;;;;;;;;2030721;29;20203;-61
2021/07/06 02:27:23;;;;;;;2.17;2.08;;;;;;;;;;2025716;29;20208;-60
2021/07/06 02:28:23;;;;;;;2.50;2.00;;;;;;;;;;2026379;29;20232;-61
2021/07/06 02:29:24;;;;;;;2.65;2.20;;;;;;;;;;2024151;29;20189;-62
2021/07/06 02:30:24;;;;;;;2.53;2.40;;;;;;;;;;2027989;29;20201;-61
2021/07/06 02:31:24;;;;;;;2.20;2.10;;;;;;;;;;2026514;29;20173;-61
2021/07/06 02:32:25;;;;;;;2.38;2.28;;;;;;;;;;2026126;29;20255;-61
2021/07/06 02:33:31;;;;;;;2.10;2.00;;;;;;;;;;2026892;29;20193;-61
2021/07/06 02:34:32;;;;;;;2.35;2.25;;;;;;;;;;2027007;29;20181;-61
2021/07/06 02:35:32;;;;;;;2.53;2.33;;;;;;;;;;2023967;29;20193;-60
2021/07/06 02:36:32;;;;;;;2.28;2.17;;;;;;;;;;2027164;29;20639;-62
2021/07/06 02:37:32;;;;;;;2.30;2.17;;;;;;;;;;2031868;29;20247;-60
2021/07/06 02:38:33;;;;;;;2.40;2.20;;;;;;;;;;2022552;29;20193;-61
2021/07/06 02:39:34;;;;;;;2.00;1.90;;;;;;;;;;2026570;29;20181;-62
2021/07/06 02:40:34;;;;;;;2.05;1.95;;;;;;;;;;2057822;23;20229;-55
2021/07/06 02:41:34;;;;;;;2.50;2.30;;;;;;;;;;2048082;28;20254;-55
2021/07/06 02:42:35;;;;;;;3.65;2.35;;;;;;;;;;2050490;28;20211;-57
2021/07/06 02:43:36;;;;;;;2.40;2.30;;;;;;;;;;2050153;28;20218;-58
2021/07/06 02:44:36;;;;;;;2.30;2.10;;;;;;;;;;2048288;29;20187;-53
2021/07/06 02:45:37;;;;;;;2.10;1.95;;;;;;;;;;2050623;29;20171;-55
2021/07/06 02:46:37;;;;;;;2.40;2.30;;;;;;;;;;2050066;29;20273;-55
2021/07/06 02:47:37;;;;;;;2.88;2.20;;;;;;;;;;2048154;28;20175;-57
2021/07/06 02:48:38;;;;;;;2.33;2.20;;;;;;;;;;2046746;29;20492;-55
2021/07/06 02:49:39;;;;;;;2.20;2.10;;;;;;;;;;2044094;29;20191;-52
2021/07/06 02:50:40;;;;;;;2.05;1.95;;;;;;;;;;2056980;28;20206;-57
2021/07/06 02:51:41;;;;;;;2.00;1.90;;;;;;;;;;2056117;28;20258;-57
2021/07/06 02:52:41;;;;;;;1.88;1.77;;;;;;;;;;2041445;29;20186;-58
2021/07/06 02:53:41;;;;;;;2.28;2.17;;;;;;;;;;2033562;29;20194;-56
2021/07/06 02:54:41;;;;;;;2.33;1.98;;;;;;;;;;2040161;29;20194;-56
2021/07/06 02:55:42;;;;;;;2.03;1.90;;;;;;;;;;2041508;29;20300;-56
2021/07/06 02:56:42;;;;;;;5.28;2.33;;;;;;;;;;2040308;29;20176;-55
2021/07/06 02:57:43;;;;;;;2.25;2.08;;;;;;;;;;2041446;29;20204;-56
2021/07/06 02:58:43;;;;;;;2.40;2.22;;;;;;;;;;2041483;29;20199;-55
2021/07/06 02:59:43;;;;;;;2.10;1.90;;;;;;;;;;2042451;29;20191;-57
2021/07/06 03:00:44;;;;;;;1.92;1.83;;;;;;;;;;2041093;29;20201;-56
2021/07/06 03:01:44;;;;;;;2.40;2.20;;;;;;;;;;2041820;29;20179;-56
2021/07/06 03:02:46;;;;;;;2.33;2.10;;;;;;;;;;2042023;29;20183;-57
2021/07/06 03:03:46;;;;;;;2.28;2.17;;;;;;;;;;2042354;29;20276;-57
2021/07/06 03:04:46;;;;;;;2.10;2.00;;;;;;;;;;2043367;29;20595;-56
2021/07/06 03:05:46;;;;;;;2.28;2.13;;;;;;;;;;2042935;29;20270;-57
2021/07/06 03:06:48;;;;;;;2.63;1.85;;;;;;;;;;2039291;29;20180;-56
2021/07/06 03:07:48;;;;;;;2.78;2.17;;;;;;;;;;2036547;29;20169;-57
2021/07/06 03:08:52;;;;;;;2.40;1.95;;;;;;;;;;2041739;29;20168;-57
2021/07/06 03:09:52;;;;;;;2.65;1.65;;;;;;;;;;2042907;29;20856;-57
2021/07/06 03:10:52;;;;;;;2.50;1.90;;;;;;;;;;2042794;29;20179;-57
2021/07/06 03:11:52;;;;;;;2.13;2.03;;;;;;;;;;2042698;29;20720;-57
2021/07/06 03:12:53;;;;;;;1.63;1.58;;;;;;;;;;2038844;29;20168;-54
2021/07/06 03:13:53;;;;;;;2.17;2.08;;;;;;;;;;2041948;29;20218;-53
2021/07/06 03:14:54;;;;;;;3.38;2.20;;;;;;;;;;2040895;29;20180;-56
2021/07/06 03:15:54;;;;;;;2.33;2.08;;;;;;;;;;2040853;29;20859;-55
2021/07/06 03:16:54;;;;;;;2.40;2.30;;;;;;;;;;2039754;29;20180;-55
2021/07/06 03:17:55;;;;;;;4.13;2.30;;;;;;;;;;2041306;29;20279;-56
2021/07/06 03:18:55;;;;;;;2.33;2.10;;;;;;;;;;2038963;29;20180;-53
2021/07/06 03:19:56;;;;;;;2.22;2.13;;;;;;;;;;2041903;29;20194;-56
2021/07/06 03:20:56;;;;;;;2.30;2.10;;;;;;;;;;2042713;29;20184;-55
2021/07/06 03:21:56;;;;;;;2.05;1.95;;;;;;;;;;2033298;29;20196;-56
2021/07/06 03:22:57;;;;;;;2.00;1.90;;;;;;;;;;2033769;29;20704;-53
2021/07/06 03:23:57;;;;;;;1.90;1.80;;;;;;;;;;2041525;29;20247;-54
2021/07/06 03:24:57;;;;;;;2.38;2.28;;;;;;;;;;2041023;29;20178;-54
2021/07/06 03:25:57;;;;;;;3.28;2.47;;;;;;;;;;2041649;29;20172;-50
2021/07/06 03:26:58;;;;;;;2.72;2.05;;;;;;;;;;2042454;29;20675;-56
2021/07/06 03:27:59;;;;;;;2.13;2.03;;;;;;;;;;2041232;29;20199;-55
2021/07/06 03:29:00;;;;;;;2.25;2.13;;;;;;;;;;2040760;29;20172;-53
2021/07/06 03:30:00;;;;;;;2.53;2.15;;;;;;;;;;2039175;29;20636;-52
2021/07/06 03:31:00;;;;;;;2.38;2.13;;;;;;;;;;2040873;29;20187;-54
2021/07/06 03:32:00;;;;;;;2.00;1.90;;;;;;;;;;2040140;29;20302;-56
2021/07/06 03:33:01;;;;;;;2.45;1.88;;;;;;;;;;2039816;29;20195;-50
2021/07/06 03:34:02;;;;;;;3.22;2.05;;;;;;;;;;2040861;29;20186;-54
2021/07/06 03:35:03;;;;;;;2.08;1.98;;;;;;;;;;2040874;29;20167;-55
2021/07/06 03:36:05;;;;;;;2.08;1.98;;;;;;;;;;2039109;29;20164;-54
2021/07/06 03:37:07;;;;;;;2.45;2.33;;;;;;;;;;2039054;29;21257;-55
2021/07/06 03:38:07;;;;;;;2.08;1.98;;;;;;;;;;2040867;29;20171;-52
2021/07/06 03:39:08;;;;;;;1.90;1.80;;;;;;;;;;2040367;29;20544;-58
2021/07/06 03:40:09;;;;;;;2.63;1.90;;;;;;;;;;2031925;29;20204;-54
2021/07/06 03:41:09;;;;;;;2.55;2.15;;;;;;;;;;2031439;29;20207;-54
2021/07/06 03:42:10;;;;;;;2.30;2.10;;;;;;;;;;2039938;29;20188;-55
2021/07/06 03:43:10;;;;;;;2.05;1.95;;;;;;;;;;2039270;29;20175;-56
2021/07/06 03:44:10;;;;;;;2.10;2.00;;;;;;;;;;2040430;29;20223;-55
2021/07/06 03:45:12;;;;;;;2.70;2.10;;;;;;;;;;2036555;29;20176;-56
2021/07/06 03:46:12;;;;;;;2.00;1.83;;;;;;;;;;2037827;29;20172;-56
2021/07/06 03:47:12;;;;;;;2.67;2.00;;;;;;;;;;2038570;29;20203;-53
2021/07/06 03:48:12;;;;;;;1.83;1.73;;;;;;;;;;2040969;29;20208;-55
2021/07/06 03:49:12;;;;;;;2.13;2.00;;;;;;;;;;2036578;29;20692;-53
2021/07/06 03:50:18;;;;;;;2.63;1.80;;;;;;;;;;2040847;29;20323;-54
2021/07/06 03:51:18;;;;;;;2.17;2.05;;;;;;;;;;2038375;29;20186;-55
2021/07/06 03:52:18;;;;;;;2.20;2.00;;;;;;;;;;2040131;29;20174;-55
2021/07/06 03:53:19;;;;;;;2.88;2.22;;;;;;;;;;2039426;29;20187;-55
2021/07/06 03:54:19;;;;;;;2.33;2.13;;;;;;;;;;2040593;29;20231;-53
2021/07/06 03:55:19;;;;;;;1.85;1.80;;;;;;;;;;2041464;29;20194;-51
2021/07/06 03:56:19;;;;;;;2.08;1.98;;;;;;;;;;2040366;29;20171;-51
2021/07/06 03:57:28;;;;;;;2.20;2.10;;;;;;;;;;2040394;29;20210;-51
2021/07/06 03:58:28;;;;;;;2.40;2.20;;;;;;;;;;2039575;29;20797;-52
2021/07/06 03:59:28;;;;;;;2.00;1.90;;;;;;;;;;2041488;29;20168;-51
2021/07/06 04:00:30;;;;;;;2.13;2.03;;;;;;;;;;2039062;29;20759;-51
2021/07/06 04:01:30;;;;;;;2.15;2.05;;;;;;;;;;2039507;29;20219;-46
2021/07/06 04:02:30;;;;;;;2.40;2.20;;;;;;;;;;2039171;29;20235;-50
2021/07/06 04:03:30;;;;;;;2.97;2.30;;;;;;;;;;2039783;29;20218;-50
2021/07/06 04:04:32;;;;;;;3.78;2.10;;;;;;;;;;2037425;29;20165;-46
2021/07/06 04:05:32;;;;;;;2.15;2.05;;;;;;;;;;2039286;29;20180;-51
2021/07/06 04:06:32;;;;;;;3.13;1.92;;;;;;;;;;2037310;29;20220;-51
2021/07/06 04:07:33;;;;;;;4.95;2.15;;;;;;;;;;2039486;29;20259;-49
2021/07/06 04:08:33;;;;;;;2.20;2.08;;;;;;;;;;2039543;29;20194;-55
2021/07/06 04:09:34;;;;;;;2.10;2.00;;;;;;;;;;2040274;29;20251;-53
2021/07/06 04:10:34;;;;;;;2.08;1.98;;;;;;;;;;2039781;29;20206;-52
2021/07/06 04:11:34;;;;;;;2.85;2.63;;;;;;;;;;2039715;29;20183;-52
2021/07/06 04:12:35;;;;;;;2.30;2.20;;;;;;;;;;2039555;29;20594;-53
2021/07/06 04:13:35;;;;;;;2.30;2.10;;;;;;;;;;2031712;29;20764;-56
2021/07/06 04:14:36;;;;;;;2.90;2.53;;;;;;;;;;2023580;29;20245;-56
2021/07/06 04:15:38;;;;;;;1.98;1.85;;;;;;;;;;2038203;29;20227;-56
2021/07/06 04:16:39;;;;;;;2.75;2.17;;;;;;;;;;2039735;29;20206;-55
2021/07/06 04:17:39;;;;;;;2.95;2.28;;;;;;;;;;2039031;29;20644;-52
2021/07/06 04:18:40;;;;;;;4.63;2.08;;;;;;;;;;2039991;29;20179;-54
2021/07/06 04:19:40;;;;;;;2.08;1.92;;;;;;;;;;2039459;29;20195;-51
2021/07/06 04:20:40;;;;;;;2.40;2.20;;;;;;;;;;2040135;29;20203;-53
2021/07/06 04:21:40;;;;;;;3.88;2.17;;;;;;;;;;2038565;29;20218;-56
2021/07/06 04:22:41;;;;;;;2.42;1.95;;;;;;;;;;2039956;29;20191;-55
2021/07/06 04:23:42;;;;;;;2.53;2.22;;;;;;;;;;2039858;29;20207;-55
2021/07/06 04:24:42;;;;;;;2.25;2.05;;;;;;;;;;2040371;29;20239;-56
2021/07/06 04:25:42;;;;;;;2.25;2.15;;;;;;;;;;2038121;29;20264;-55
2021/07/06 04:26:44;;;;;;;4.50;1.90;;;;;;;;;;2039799;29;20179;-55
2021/07/06 04:27:44;;;;;;;2.00;1.90;;;;;;;;;;2038467;29;20199;-57
2021/07/06 04:28:45;;;;;;;3.00;2.20;;;;;;;;;;2040630;29;20236;-54
2021/07/06 04:29:47;;;;;;;2.35;1.90;;;;;;;;;;2038876;29;20334;-54
2021/07/06 04:30:47;;;;;;;2.30;2.10;;;;;;;;;;2039444;29;20199;-53
2021/07/06 04:31:47;;;;;;;2.20;2.10;;;;;;;;;;2039043;29;20188;-57
2021/07/06 04:32:47;;;;;;;2.80;2.60;;;;;;;;;;2039781;29;20179;-55
2021/07/06 04:33:48;;;;;;;2.25;2.15;;;;;;;;;;2039313;29;20648;-55
2021/07/06 04:34:49;;;;;;;2.25;2.05;;;;;;;;;;2037483;29;20653;-54
2021/07/06 04:35:49;;;;;;;2.05;1.95;;;;;;;;;;2038775;29;20194;-56
2021/07/06 04:36:50;;;;;;;2.00;1.70;;;;;;;;;;2039709;29;20182;-56
2021/07/06 04:37:50;;;;;;;2.13;1.98;;;;;;;;;;2038046;29;20184;-57
2021/07/06 04:38:50;;;;;;;3.42;1.95;;;;;;;;;;2039840;29;20226;-56
2021/07/06 04:39:51;;;;;;;2.47;2.15;;;;;;;;;;2037210;29;20668;-56
2021/07/06 04:40:51;;;;;;;1.98;1.80;;;;;;;;;;2039790;29;20199;-56
2021/07/06 04:41:51;;;;;;;1.92;1.73;;;;;;;;;;2039161;29;20189;-54
2021/07/06 04:42:55;;;;;;;4.13;2.10;;;;;;;;;;2040107;29;20704;-55
2021/07/06 04:43:55;;;;;;;2.70;2.08;;;;;;;;;;2036606;29;20661;-53
2021/07/06 04:44:55;;;;;;;1.70;1.60;;;;;;;;;;2038947;29;20176;-56
2021/07/06 04:45:56;;;;;;;2.28;2.08;;;;;;;;;;2038857;29;20662;-51
2021/07/06 04:46:56;;;;;;;2.20;2.10;;;;;;;;;;2039275;29;20231;-49
2021/07/06 04:47:56;;;;;;;3.35;2.33;;;;;;;;;;2039931;29;20637;-55
2021/07/06 04:48:56;;;;;;;2.30;2.00;;;;;;;;;;2038408;29;20171;-54
2021/07/06 04:49:57;;;;;;;2.33;1.98;;;;;;;;;;2039638;29;20188;-52
2021/07/06 04:51:04;;;;;;;2.28;2.10;;;;;;;;;;2039680;29;20172;-53
2021/07/06 04:52:04;;;;;;;2.08;1.90;;;;;;;;;;2038972;29;21798;-52
2021/07/06 04:53:05;;;;;;;2.20;1.85;;;;;;;;;;2040582;29;20192;-54
2021/07/06 04:54:06;;;;;;;1.90;1.80;;;;;;;;;;2039897;29;20163;-56
2021/07/06 04:55:06;;;;;;;1.80;1.70;;;;;;;;;;2039717;29;20211;-61
2021/07/06 04:56:06;;;;;;;2.30;2.17;;;;;;;;;;2039641;29;20664;-57
2021/07/06 04:57:07;;;;;;;3.33;1.88;;;;;;;;;;2034473;29;20180;-54
2021/07/06 04:58:07;;;;;;;9.73;2.42;;;;;;;;;;2038521;29;20663;-54
2021/07/06 04:59:07;;;;;;;2.10;1.83;;;;;;;;;;2039758;29;20179;-55
2021/07/06 05:00:08;;;;;;;4.38;2.55;;;;;;;;;;2038695;29;20253;-56
2021/07/06 05:01:09;;;;;;;2.22;2.13;;;;;;;;;;2039049;29;20183;-56
2021/07/06 05:02:09;;;;;;;3.05;1.95;;;;;;;;;;2036524;29;20180;-57
2021/07/06 05:03:10;;;;;;;2.47;2.10;;;;;;;;;;2040340;29;20171;-54
2021/07/06 05:04:11;;;;;;;3.05;2.15;;;;;;;;;;2039214;29;20669;-56
2021/07/06 05:05:11;;;;;;;2.30;2.00;;;;;;;;;;2040205;29;20616;-56
2021/07/06 05:06:12;;;;;;;2.15;1.85;;;;;;;;;;2038689;29;20185;-55
2021/07/06 05:07:12;;;;;;;3.22;1.90;;;;;;;;;;2040146;29;20214;-55
2021/07/06 05:08:12;;;;;;;1.92;1.83;;;;;;;;;;2039437;29;20176;-54
2021/07/06 05:09:12;;;;;;;2.53;2.00;;;;;;;;;;2040572;29;20187;-55
2021/07/06 05:10:13;;;;;;;2.08;1.98;;;;;;;;;;2038154;29;20277;-53
2021/07/06 05:11:14;;;;;;;2.20;2.08;;;;;;;;;;2039822;29;20581;-54
2021/07/06 05:12:14;;;;;;;3.67;1.95;;;;;;;;;;2039351;29;20183;-54
2021/07/06 05:13:14;;;;;;;4.07;2.55;;;;;;;;;;2040045;29;20186;-54
2021/07/06 05:14:15;;;;;;;1.80;1.70;;;;;;;;;;2039759;29;20377;-57
2021/07/06 05:15:15;;;;;;;2.75;2.20;;;;;;;;;;2039548;29;20180;-55
2021/07/06 05:16:15;;;;;;;2.53;1.80;;;;;;;;;;2039621;29;20175;-51
2021/07/06 05:17:15;;;;;;;2.75;2.20;;;;;;;;;;2040613;29;20655;-57
2021/07/06 05:18:16;;;;;;;3.47;1.98;;;;;;;;;;2038647;29;20184;-52
2021/07/06 05:19:16;;;;;;;2.20;2.10;;;;;;;;;;2040359;29;20648;-55
2021/07/06 05:20:16;;;;;;;4.63;1.90;;;;;;;;;;2038865;29;20230;-56
2021/07/06 05:21:17;;;;;;;2.03;1.73;;;;;;;;;;2040062;29;20172;-57
2021/07/06 05:22:17;;;;;;;2.10;1.92;;;;;;;;;;2039399;29;20172;-55
2021/07/06 05:23:17;;;;;;;3.80;2.10;;;;;;;;;;2040218;29;20656;-56
2021/07/06 05:24:17;;;;;;;3.97;1.70;;;;;;;;;;2039247;29;20163;-58
2021/07/06 05:25:18;;;;;;;3.80;1.90;;;;;;;;;;2040028;29;20363;-55
2021/07/06 05:26:18;;;;;;;2.20;2.00;;;;;;;;;;2039660;29;20267;-54
2021/07/06 05:27:18;;;;;;;2.72;1.67;;;;;;;;;;2039876;29;20179;-54
2021/07/06 05:28:19;;;;;;;1.83;1.73;;;;;;;;;;2038943;29;20655;-56
2021/07/06 05:29:19;;;;;;;1.67;1.55;;;;;;;;;;2039116;29;20603;-59
2021/07/06 05:30:20;;;;;;;2.90;1.75;;;;;;;;;;2040834;29;20274;-55
2021/07/06 05:31:20;;;;;;;3.95;1.92;;;;;;;;;;2037953;29;20176;-53
2021/07/06 05:32:21;;;;;;;2.13;2.00;;;;;;;;;;2039829;29;20529;-58
2021/07/06 05:33:21;;;;;;;2.92;2.05;;;;;;;;;;2039524;29;20180;-55
2021/07/06 05:34:21;;;;;;;2.75;2.00;;;;;;;;;;2039970;29;20664;-56
2021/07/06 05:35:22;;;;;;;2.13;1.90;;;;;;;;;;2039213;29;20240;-55
2021/07/06 05:36:22;;;;;;;2.40;2.00;;;;;;;;;;2039769;29;20597;-55
2021/07/06 05:37:22;;;;;;;2.70;1.75;;;;;;;;;;2036780;29;20173;-55
2021/07/06 05:38:23;;;;;;;1.95;1.85;;;;;;;;;;2039590;29;20258;-56
2021/07/06 05:39:23;;;;;;;3.17;1.88;;;;;;;;;;2040132;29;20266;-48
2021/07/06 05:40:24;;;;;;;2.13;1.95;;;;;;;;;;2042587;29;20288;-53
2021/07/06 05:41:25;;;;;;;1.88;1.77;;;;;;;;;;2036594;29;20172;-51
2021/07/06 05:42:25;;;;;;;1.95;1.75;;;;;;;;;;2042201;29;20825;-53
2021/07/06 05:43:26;;;;;;;1.80;1.60;;;;;;;;;;2037818;29;20259;-54
2021/07/06 05:44:26;;;;;;;4.18;1.90;;;;;;;;;;2042502;29;20274;-53
2021/07/06 05:45:26;;;;;;;1.85;1.75;;;;;;;;;;2041666;29;20210;-50
2021/07/06 05:46:27;;;;;;;1.60;1.50;;;;;;;;;;2042181;29;20648;-54
2021/07/06 05:47:27;;;;;;;3.00;1.60;;;;;;;;;;2041419;29;20186;-54
2021/07/06 05:48:28;;;;;;;2.83;1.67;;;;;;;;;;2040417;29;20708;-51
2021/07/06 05:49:28;;;;;;;1.80;1.70;;;;;;;;;;2041303;29;20168;-56
2021/07/06 05:50:28;;;;;;;1.65;1.52;;;;;;;;;;2041441;29;20204;-54
2021/07/06 05:51:29;;;;;;;2.50;1.60;;;;;;;;;;2041192;29;20188;-53
2021/07/06 05:52:29;;;;;;;1.70;1.60;;;;;;;;;;2041844;29;20206;-56
2021/07/06 05:53:29;;;;;;;1.88;1.63;;;;;;;;;;2041782;29;20187;-54
2021/07/06 05:54:29;;;;;;;2.58;1.83;;;;;;;;;;2041379;29;20176;-54
2021/07/06 05:55:30;;;;;;;2.65;1.45;;;;;;;;;;2041224;29;20275;-55
2021/07/06 05:56:32;;;;;;;1.60;1.50;;;;;;;;;;2041197;29;20179;-55
2021/07/06 05:57:33;;;;;;;1.90;1.80;;;;;;;;;;2048497;28;20233;-54
2021/07/06 05:58:33;;;;;;;2.97;2.00;;;;;;;;;;2036387;29;20232;-52
2021/07/06 05:59:33;;;;;;;1.88;1.65;;;;;;;;;;2039588;29;20194;-51
2021/07/06 06:00:34;;;;;;;2.28;1.98;;;;;;;;;;2041653;29;20270;-52
2021/07/06 06:01:34;;;;;;;2.20;2.00;;;;;;;;;;2039832;29;20599;-54
2021/07/06 06:02:35;;;;;;;1.98;1.73;;;;;;;;;;2040634;29;20724;-54
2021/07/06 06:03:35;;;;;;;1.55;1.45;;;;;;;;;;2040813;29;20239;-56
2021/07/06 06:04:36;;;;;;;1.92;1.67;;;;;;;;;;2041065;29;20179;-51